< Cyclone 198007 1980 Season Cyclone 198009 >
Cyclone 198008 (DEAN)
General InformationTrack Information on Google MapsDetailed Wind Information || ResourceGoogle EarthGE AnimationAtom FeedGeoJSON
Detalied Best Track (Time Zone = UTC)
Year Month Day Hour Lat. Long. Pressure (hPa) Wind (kt) Class Image Chart
1980 1 27 00 -10.4 129.4 1005 25 2 -- --
1980 1 27 06 -10.7 129.2 1002 25 2 -- --
1980 1 27 12 -10.9 129.0 1000 30 2 -- --
1980 1 27 18 -11.1 128.8 997 35 3 -- --
1980 1 28 00 -11.3 128.4 994 40 3 -- --
1980 1 28 06 -11.4 127.6 992 50 4 -- --
1980 1 28 12 -11.4 126.2 990 50 4 -- --
1980 1 28 18 -11.6 124.6 988 50 4 -- --
1980 1 29 00 -11.8 123.2 986 55 4 -- --
1980 1 29 06 -12.2 121.1 984 55 4 -- --
1980 1 29 12 -12.6 120.8 982 60 4 -- --
1980 1 29 18 -13.0 119.9 980 60 4 -- --
1980 1 30 00 -13.4 119.0 978 60 4 -- --
1980 1 30 06 -14.0 118.0 975 60 4 -- --
1980 1 30 12 -14.7 117.2 972 60 4 -- --
1980 1 30 15 -15.1 117.0 970 70 5 -- --
1980 1 30 18 -15.5 117.0 968 75 5 -- --
1980 1 31 00 -15.8 117.1 964 80 5 -- --
1980 1 31 06 -16.5 117.4 958 85 5 -- --
1980 1 31 12 -17.6 117.9 950 100 5 -- --
1980 1 31 18 -18.6 118.4 942 110 5 -- --
1980 2 1 00 -19.8 118.9 930 110 5 -- --
1980 2 1 06 -21.3 119.3 955 90 5 -- --
1980 2 1 12 -22.4 119.5 974 70 5 -- --
1980 2 1 18 -23.1 120.1 980 50 4 -- --
1980 2 2 00 -23.6 120.6 985 45 3 -- --
1980 2 2 06 -23.9 121.0 989 45 3 -- --
1980 2 2 12 -24.1 121.4 991 40 3 -- --
1980 2 2 18 -24.3 121.8 993 35 3 -- --
1980 2 3 06 -24.7 123.1 996 30 2 -- --
1980 2 3 12 -24.9 124.3 997 30 2 -- --
1980 2 3 18 -24.8 125.7 998 30 2 -- --
1980 2 4 00 -24.2 126.2 999 25 2 -- --
< Cyclone 198007 1980 Season Cyclone 198009 >

Help